Dubai Fortune — H9SA — position and weather

sailwx.info

Track history (hours):
 
Tides and Currents Weather Stations Pressure Air Temp Water Temp Dewpoint Dewpoint Depression Visibility Wind Speed Wind Dir Waves Ship Positions

Dubai Fortune

Last reported at 2014-Nov-18 17:28 UTC. Time now 2014-Nov-27 21:58 UTC.
Position N 01°12' E 103°37'.
Warning: this ship's position is 9 days out of date.

Length 188 m; draft 9.4 m.

Type: Cargo ship. MMSI: 353316000.

Date/timePositionNaut miles runAvg speedWind from/ knotsBaromVisibWave heightAir tempDewpointWater temp
2014-Nov-18 17:28N 01°12' E 103°37'9 9.5
2014-Nov-18 16:31N 01°09' E 103°45'1010.1
2014-Nov-18 15:33N 01°13' E 103°54'5 4.8
2014-Nov-18 14:33N 01°17' E 103°57'0 0.0
2014-Nov-18 13:31N 01°17' E 103°57'0 0.0
2014-Nov-18 12:19N 01°17' E 103°57'0 0.0
2014-Nov-18 11:28N 01°17' E 103°57'0 0.0
2014-Nov-18 10:28N 01°17' E 103°57'0 0.0
2014-Nov-18 09:22N 01°17' E 103°57'0 0.0
2014-Nov-18 08:34N 01°17' E 103°57'0 0.0
2014-Nov-18 07:33N 01°17' E 103°57'0 0.0
2014-Nov-18 06:33N 01°17' E 103°57'0 0.0
2014-Nov-18 05:32N 01°17' E 103°57'0 0.1
2014-Nov-18 04:33N 01°17' E 103°57'1 1.3
2014-Nov-18 03:34N 01°16' E 103°57'5 4.6
2014-Nov-18 02:31N 01°16' E 104°02'8 7.3
2014-Nov-18 01:28N 01°17' E 104°10'7 7.1
2014-Nov-18 00:29N 01°18' E 104°17'  
2014-Nov-12 03:08N 22°33' E 119°51'610.6
2014-Nov-12 02:33N 22°38' E 119°54'1010.1
2014-Nov-12 01:33N 22°48' E 119°56'  
2014-Nov-09 19:10N 31°15' E 121°59'7 9.9
2014-Nov-09 18:28N 31°16' E 121°52'8 8.8
2014-Nov-09 17:31N 31°19' E 121°42'6 6.7
2014-Nov-09 16:33N 31°23' E 121°36'7 7.3
2014-Nov-09 15:33N 31°27' E 121°29'1110.9
2014-Nov-09 14:33N 31°34' E 121°19'1313.0
2014-Nov-09 13:33N 31°43' E 121°08'1111.1
2014-Nov-09 12:33N 31°49' E 120°57'0 0.2
2014-Nov-09 11:32N 31°49' E 120°57'0 0.0
2014-Nov-09 10:27N 31°49' E 120°57'0 0.0
2014-Nov-09 09:26N 31°49' E 120°57'0 0.0
2014-Nov-09 08:30N 31°49' E 120°57'0 0.0
2014-Nov-09 07:26N 31°49' E 120°57'0 0.0
2014-Nov-09 06:33N 31°49' E 120°57'0 0.0
2014-Nov-09 05:30N 31°49' E 120°57'0 0.0
2014-Nov-09 04:30N 31°49' E 120°57'0 0.0
2014-Nov-09 03:29N 31°49' E 120°57'0 0.0
2014-Nov-09 02:30N 31°49' E 120°57'0 0.0
2014-Nov-09 01:24N 31°49' E 120°57'0 0.0
2014-Nov-09 00:33N 31°49' E 120°57'0 0.0
2014-Nov-08 23:08N 31°49' E 120°57'0 0.0
2014-Nov-08 22:33N 31°49' E 120°57'0 0.0
2014-Nov-08 21:33N 31°49' E 120°57'0 0.0
2014-Nov-08 20:32N 31°49' E 120°57'0 0.0
2014-Nov-08 19:30N 31°49' E 120°57'0 0.0
2014-Nov-08 18:27N 31°49' E 120°57'0 0.0
2014-Nov-08 17:30N 31°49' E 120°57'  
Track history (hours):
 
Tides and Currents Weather Stations Pressure Air Temp Water Temp Dewpoint Dewpoint Depression Visibility Wind Speed Wind Dir Waves Ship Positions

Dubai Fortune

Last reported at 2014-Nov-18 17:28 UTC. Time now 2014-Nov-27 21:58 UTC.
Position N 01°12' E 103°37'.
Warning: this ship's position is 9 days out of date.

Length 188 m; draft 9.4 m.

Type: Cargo ship. MMSI: 353316000.

Date/timePositionNaut miles runAvg speedWind from/ knotsBaromVisibWave heightAir tempDewpointWater temp
2014-Nov-18 17:28N 01°12' E 103°37'9 9.5
2014-Nov-18 16:31N 01°09' E 103°45'1010.1
2014-Nov-18 15:33N 01°13' E 103°54'5 4.8
2014-Nov-18 14:33N 01°17' E 103°57'0 0.0
2014-Nov-18 13:31N 01°17' E 103°57'0 0.0
2014-Nov-18 12:19N 01°17' E 103°57'0 0.0
2014-Nov-18 11:28N 01°17' E 103°57'0 0.0
2014-Nov-18 10:28N 01°17' E 103°57'0 0.0
2014-Nov-18 09:22N 01°17' E 103°57'0 0.0
2014-Nov-18 08:34N 01°17' E 103°57'0 0.0
2014-Nov-18 07:33N 01°17' E 103°57'0 0.0
2014-Nov-18 06:33N 01°17' E 103°57'0 0.0
2014-Nov-18 05:32N 01°17' E 103°57'0 0.1
2014-Nov-18 04:33N 01°17' E 103°57'1 1.3
2014-Nov-18 03:34N 01°16' E 103°57'5 4.6
2014-Nov-18 02:31N 01°16' E 104°02'8 7.3
2014-Nov-18 01:28N 01°17' E 104°10'7 7.1
2014-Nov-18 00:29N 01°18' E 104°17'  
2014-Nov-12 03:08N 22°33' E 119°51'610.6
2014-Nov-12 02:33N 22°38' E 119°54'1010.1
2014-Nov-12 01:33N 22°48' E 119°56'  
2014-Nov-09 19:10N 31°15' E 121°59'7 9.9
2014-Nov-09 18:28N 31°16' E 121°52'8 8.8
2014-Nov-09 17:31N 31°19' E 121°42'6 6.7
2014-Nov-09 16:33N 31°23' E 121°36'7 7.3
2014-Nov-09 15:33N 31°27' E 121°29'1110.9
2014-Nov-09 14:33N 31°34' E 121°19'1313.0
2014-Nov-09 13:33N 31°43' E 121°08'1111.1
2014-Nov-09 12:33N 31°49' E 120°57'0 0.2
2014-Nov-09 11:32N 31°49' E 120°57'0 0.0
2014-Nov-09 10:27N 31°49' E 120°57'0 0.0
2014-Nov-09 09:26N 31°49' E 120°57'0 0.0
2014-Nov-09 08:30N 31°49' E 120°57'0 0.0
2014-Nov-09 07:26N 31°49' E 120°57'0 0.0
2014-Nov-09 06:33N 31°49' E 120°57'0 0.0
2014-Nov-09 05:30N 31°49' E 120°57'0 0.0
2014-Nov-09 04:30N 31°49' E 120°57'0 0.0
2014-Nov-09 03:29N 31°49' E 120°57'0 0.0
2014-Nov-09 02:30N 31°49' E 120°57'0 0.0
2014-Nov-09 01:24N 31°49' E 120°57'0 0.0
2014-Nov-09 00:33N 31°49' E 120°57'0 0.0
2014-Nov-08 23:08N 31°49' E 120°57'0 0.0
2014-Nov-08 22:33N 31°49' E 120°57'0 0.0
2014-Nov-08 21:33N 31°49' E 120°57'0 0.0
2014-Nov-08 20:32N 31°49' E 120°57'0 0.0
2014-Nov-08 19:30N 31°49' E 120°57'0 0.0
2014-Nov-08 18:27N 31°49' E 120°57'0 0.0
2014-Nov-08 17:30N 31°49' E 120°57'  

Dump ship's entire track history